Key Colony Beach, Florida
Current Conditions -  °F | °C
As of 6:53 AM on Thursday 18 Dec 2014 (Local Time) from KMTH Reporting Station
Clear Clear  
Wind Chill: 63°   Ceiling: Unl
Heat Index: 63°   Visibility: 10mi
Dew Point: 60°   Wind: 6mph
Humidity: 90%   Direction: 30°NNE
Pressure: 30.14"   Gusts: NA
Location:  24.72°N, 81.02°W
Report Text: KMTH 181153Z AUTO 03005KT 10SM CLR 17/16 A3014 RMK AO2 SLP205 T01720156 10194 20172 53002 $
Loading
Personal Weather Stations






























Interactive Weather Map New forecast layout! Learn more

10-Day Weather Forecast

Advertisements
Track Severe Weather on mobile